createdAt,value
2022-08-27T00:00:37.601Z,98.90
2022-08-27T00:01:37.678Z,98.80
2022-08-27T00:02:37.667Z,98.90
2022-08-27T00:03:37.690Z,99.10
2022-08-27T00:04:37.781Z,99.20
2022-08-27T00:05:37.743Z,99.35
2022-08-27T00:06:37.794Z,99.35
2022-08-27T00:07:37.853Z,99.45
2022-08-27T00:08:37.803Z,99.35
2022-08-27T00:09:37.805Z,99.25
2022-08-27T00:10:37.903Z,99.25
2022-08-27T00:11:37.914Z,99.45
2022-08-27T00:12:37.944Z,99.45
2022-08-27T00:13:37.968Z,99.45
2022-08-27T00:14:37.927Z,99.45
2022-08-27T00:15:38.033Z,99.35
2022-08-27T00:16:38.036Z,99.35
2022-08-27T00:17:38.065Z,99.35
2022-08-27T00:18:38.035Z,98.94
2022-08-27T00:19:38.095Z,98.94
2022-08-27T00:20:38.181Z,99.05
2022-08-27T00:21:38.186Z,98.85
2022-08-27T00:22:38.179Z,98.65
2022-08-27T00:23:38.157Z,98.65
2022-08-27T00:24:42.060Z,98.54
2022-08-27T00:25:38.338Z,98.54
2022-08-27T00:26:43.085Z,98.34
2022-08-27T00:27:38.333Z,98.24
2022-08-27T00:28:38.330Z,98.44
2022-08-27T00:29:38.330Z,98.44
2022-08-27T00:30:38.323Z,98.34
2022-08-27T00:31:38.416Z,98.44
2022-08-27T00:32:38.370Z,98.14
2022-08-27T00:33:38.373Z,98.04
2022-08-27T00:34:38.422Z,97.84
2022-08-27T00:35:38.422Z,97.94
2022-08-27T00:36:38.465Z,97.94
2022-08-27T00:37:38.422Z,98.04
2022-08-27T00:38:38.491Z,97.64
2022-08-27T00:39:38.563Z,97.74
2022-08-27T00:40:38.649Z,97.64
2022-08-27T00:41:38.618Z,97.74
2022-08-27T00:42:38.613Z,97.64
2022-08-27T00:43:38.574Z,97.84
2022-08-27T00:44:38.643Z,97.74
2022-08-27T00:45:38.694Z,97.84
2022-08-27T00:46:38.678Z,97.94
2022-08-27T00:47:38.673Z,98.04
2022-08-27T00:48:38.655Z,98.14
2022-08-27T00:49:38.693Z,98.04
2022-08-27T00:50:38.697Z,98.14
2022-08-27T00:51:38.749Z,97.64
2022-08-27T00:52:38.796Z,97.84
2022-08-27T00:53:38.816Z,97.74
2022-08-27T00:54:38.898Z,97.44
2022-08-27T00:55:38.917Z,97.74
2022-08-27T00:56:38.969Z,97.53
2022-08-27T00:57:38.952Z,97.58
2022-08-27T00:58:39.015Z,97.58
2022-08-27T00:59:39.079Z,97.58
2022-08-27T01:00:39.120Z,97.89
2022-08-27T01:01:39.070Z,97.78
2022-08-27T01:02:39.071Z,97.69
2022-08-27T01:03:39.110Z,97.78
2022-08-27T01:04:39.132Z,97.78
2022-08-27T01:05:39.211Z,97.78
2022-08-27T01:06:39.245Z,97.89
2022-08-27T01:07:39.266Z,97.78
2022-08-27T01:08:39.236Z,97.69
2022-08-27T01:09:39.298Z,97.78
2022-08-27T01:10:39.300Z,97.89
2022-08-27T01:11:39.284Z,97.99
2022-08-27T01:12:39.326Z,97.89
2022-08-27T01:13:58.769Z,97.89
2022-08-27T01:14:39.415Z,97.89
2022-08-27T01:15:39.401Z,97.89
2022-08-27T01:16:39.537Z,97.99
2022-08-27T01:17:39.534Z,97.99
2022-08-27T01:18:39.599Z,97.99
2022-08-27T01:19:39.636Z,98.09
2022-08-27T01:20:39.707Z,98.09
2022-08-27T01:21:39.743Z,97.99
2022-08-27T01:22:39.815Z,98.19
2022-08-27T01:23:39.798Z,97.99
2022-08-27T01:24:39.838Z,97.89
2022-08-27T01:25:39.908Z,97.99
2022-08-27T01:26:39.959Z,97.99
2022-08-27T01:27:40.031Z,98.19
2022-08-27T01:28:40.002Z,98.29
2022-08-27T01:29:40.041Z,98.19
2022-08-27T01:30:40.121Z,98.19
2022-08-27T01:31:40.147Z,98.19
2022-08-27T01:32:40.153Z,98.29
2022-08-27T01:33:40.191Z,98.19
2022-08-27T01:34:40.213Z,98.03
2022-08-27T01:35:40.342Z,98.24
2022-08-27T01:36:40.299Z,98.24
2022-08-27T01:37:40.353Z,98.24
2022-08-27T01:38:40.544Z,98.44
2022-08-27T01:39:40.695Z,98.44
2022-08-27T01:40:40.478Z,98.24
2022-08-27T01:41:40.509Z,98.13
2022-08-27T01:42:40.535Z,98.03
2022-08-27T01:43:40.545Z,98.13
2022-08-27T01:44:40.576Z,98.13
2022-08-27T01:45:40.548Z,98.44
2022-08-27T01:46:40.649Z,98.44
2022-08-27T01:47:40.629Z,98.44
2022-08-27T01:48:40.719Z,98.13
2022-08-27T01:49:40.780Z,98.24
2022-08-27T01:50:40.769Z,98.44
2022-08-27T01:51:40.818Z,98.13
2022-08-27T01:52:40.830Z,98.03
2022-08-27T01:53:40.857Z,98.13
2022-08-27T01:54:41.139Z,98.24
2022-08-27T01:55:40.905Z,97.53
2022-08-27T01:56:40.970Z,97.83
2022-08-27T01:57:41.053Z,97.73
2022-08-27T01:58:41.048Z,97.93
2022-08-27T01:59:41.101Z,97.83
2022-08-27T02:00:41.144Z,97.93
2022-08-27T02:01:41.149Z,97.73
2022-08-27T02:02:41.081Z,97.53
2022-08-27T02:03:41.129Z,97.73
2022-08-27T02:04:41.175Z,97.63
2022-08-27T02:05:44.681Z,97.53
2022-08-27T02:06:41.171Z,97.53
2022-08-27T02:07:41.262Z,97.43
2022-08-27T02:08:41.303Z,97.33
2022-08-27T02:09:41.323Z,97.43
2022-08-27T02:10:41.311Z,97.53
2022-08-27T02:11:44.752Z,97.38
2022-08-27T02:12:41.385Z,97.38
2022-08-27T02:13:41.355Z,97.58
2022-08-27T02:14:41.405Z,97.38
2022-08-27T02:15:41.424Z,97.58
2022-08-27T02:16:41.424Z,97.47
2022-08-27T02:17:41.436Z,97.27
2022-08-27T02:18:41.718Z,97.27
2022-08-27T02:19:41.462Z,97.17
2022-08-27T02:20:41.537Z,97.17
2022-08-27T02:21:41.547Z,97.07
2022-08-27T02:22:41.518Z,97.07
2022-08-27T02:23:41.505Z,97.17
2022-08-27T02:24:41.579Z,97.17
2022-08-27T02:25:41.590Z,96.97
2022-08-27T02:26:41.584Z,97.17
2022-08-27T02:27:41.683Z,96.87
2022-08-27T02:28:41.581Z,96.77
2022-08-27T02:29:41.586Z,96.77
2022-08-27T02:30:41.593Z,96.87
2022-08-27T02:31:41.654Z,96.67
2022-08-27T02:32:41.591Z,96.77
2022-08-27T02:33:41.662Z,96.77
2022-08-27T02:34:41.692Z,96.67
2022-08-27T02:35:41.693Z,96.56
2022-08-27T02:36:41.681Z,96.56
2022-08-27T02:37:41.724Z,96.56
2022-08-27T02:38:41.773Z,96.56
2022-08-27T02:39:45.924Z,96.67
2022-08-27T02:40:41.896Z,96.67
2022-08-27T02:41:41.934Z,96.36
2022-08-27T02:42:41.906Z,96.16
2022-08-27T02:43:41.976Z,96.16
2022-08-27T02:44:41.954Z,96.26
2022-08-27T02:45:42.016Z,96.47
2022-08-27T02:46:42.192Z,96.36
2022-08-27T02:47:42.129Z,96.36
2022-08-27T02:48:42.168Z,96.47
2022-08-27T02:49:42.243Z,96.26
2022-08-27T02:50:42.220Z,96.26
2022-08-27T02:51:42.258Z,96.36
2022-08-27T02:52:42.295Z,96.06
2022-08-27T02:53:42.319Z,96.16
2022-08-27T02:54:42.381Z,96.16
2022-08-27T02:55:42.390Z,96.26
2022-08-27T02:56:42.468Z,96.26
2022-08-27T02:57:42.510Z,96.16
2022-08-27T02:58:42.573Z,96.16
2022-08-27T02:59:42.669Z,96.26
2022-08-27T03:00:42.632Z,96.26
2022-08-27T03:01:42.703Z,96.06
2022-08-27T03:02:42.681Z,96.16
2022-08-27T03:03:42.690Z,96.16
2022-08-27T03:04:42.690Z,96.06
2022-08-27T03:05:42.814Z,96.26
2022-08-27T03:06:42.784Z,96.47
2022-08-27T03:07:42.844Z,96.47
2022-08-27T03:08:52.243Z,96.36
2022-08-27T03:09:42.927Z,96.16
2022-08-27T03:10:42.953Z,96.26
2022-08-27T03:11:42.936Z,96.16
2022-08-27T03:12:43.008Z,96.06
2022-08-27T03:13:43.005Z,95.76
2022-08-27T03:14:42.975Z,95.96
2022-08-27T03:15:43.031Z,96.06
2022-08-27T03:16:43.095Z,95.96
2022-08-27T03:17:43.154Z,95.66
2022-08-27T03:18:43.165Z,95.76
2022-08-27T03:19:43.168Z,95.66
2022-08-27T03:20:43.165Z,95.56
2022-08-27T03:21:43.190Z,95.56
2022-08-27T03:22:43.129Z,95.76
2022-08-27T03:23:43.179Z,95.86
2022-08-27T03:24:43.240Z,95.66
2022-08-27T03:25:43.304Z,95.76
2022-08-27T03:26:43.301Z,95.76
2022-08-27T03:27:43.349Z,95.86
2022-08-27T03:28:43.424Z,95.86
2022-08-27T03:29:43.420Z,95.86
2022-08-27T03:30:43.493Z,95.36
2022-08-27T03:31:43.514Z,95.06
2022-08-27T03:32:43.460Z,95.26
2022-08-27T03:33:43.518Z,95.36
2022-08-27T03:34:43.505Z,95.15
2022-08-27T03:35:43.514Z,95.15
2022-08-27T03:36:43.514Z,95.26
2022-08-27T03:37:43.569Z,95.06
2022-08-27T03:38:43.575Z,95.20
2022-08-27T03:39:43.636Z,94.95
2022-08-27T03:40:43.598Z,94.95
2022-08-27T03:41:54.216Z,95.00
2022-08-27T03:42:43.735Z,94.90
2022-08-27T03:43:43.786Z,94.90
2022-08-27T03:44:43.840Z,95.10
2022-08-27T03:46:00.276Z,94.80
2022-08-27T03:46:43.909Z,95.00
2022-08-27T03:47:43.926Z,94.80
2022-08-27T03:48:43.919Z,94.90
2022-08-27T03:49:43.968Z,94.80
2022-08-27T03:50:44.008Z,95.10
2022-08-27T03:51:44.059Z,95.10
2022-08-27T03:52:44.111Z,95.00
2022-08-27T03:53:44.214Z,94.90
2022-08-27T03:54:44.338Z,94.80
2022-08-27T03:55:44.260Z,94.80
2022-08-27T03:56:44.242Z,94.59
2022-08-27T03:57:44.310Z,94.59
2022-08-27T03:58:44.372Z,94.49
2022-08-27T03:59:44.363Z,94.39
2022-08-27T04:00:44.349Z,93.99
2022-08-27T04:01:44.385Z,94.29
2022-08-27T04:02:44.366Z,94.19
2022-08-27T04:03:44.286Z,94.39
2022-08-27T04:04:44.348Z,94.19
2022-08-27T04:05:45.293Z,93.79
2022-08-27T04:06:44.429Z,93.99
2022-08-27T04:07:44.457Z,93.99
2022-08-27T04:08:44.442Z,93.99
2022-08-27T04:09:44.418Z,94.49
2022-08-27T04:10:44.497Z,94.29
2022-08-27T04:11:44.498Z,94.29
2022-08-27T04:12:44.477Z,93.69
2022-08-27T04:13:44.567Z,93.49
2022-08-27T04:14:44.598Z,93.59
2022-08-27T04:15:44.646Z,93.59
2022-08-27T04:16:44.660Z,93.49
2022-08-27T04:17:44.548Z,93.59
2022-08-27T04:18:44.579Z,93.69
2022-08-27T04:19:44.584Z,93.69
2022-08-27T04:20:44.632Z,93.59
2022-08-27T04:21:44.728Z,93.18
2022-08-27T04:22:44.728Z,93.29
2022-08-27T04:23:44.778Z,93.08
2022-08-27T04:24:44.771Z,93.08
2022-08-27T04:25:44.805Z,92.98
2022-08-27T04:26:44.830Z,92.98
2022-08-27T04:27:44.902Z,93.08
2022-08-27T04:28:48.734Z,92.88
2022-08-27T04:29:44.855Z,93.08
2022-08-27T04:30:44.886Z,92.78
2022-08-27T04:31:44.970Z,92.98
2022-08-27T04:32:44.896Z,92.68
2022-08-27T04:33:50.922Z,92.47
2022-08-27T04:34:44.889Z,92.68
2022-08-27T04:35:44.990Z,92.68
2022-08-27T04:36:44.997Z,92.78
2022-08-27T04:37:45.025Z,92.78
2022-08-27T04:38:45.004Z,92.68
2022-08-27T04:39:49.758Z,92.82
2022-08-27T04:40:45.079Z,92.93
2022-08-27T04:41:45.055Z,92.82
2022-08-27T04:42:45.137Z,92.82
2022-08-27T04:43:45.120Z,92.72
2022-08-27T04:44:45.178Z,92.72
2022-08-27T04:45:45.158Z,92.93
2022-08-27T04:46:49.134Z,92.72
2022-08-27T04:47:45.489Z,93.02
2022-08-27T04:48:45.332Z,92.72
2022-08-27T04:49:45.251Z,92.32
2022-08-27T04:50:45.219Z,92.62
2022-08-27T04:51:45.696Z,92.82
2022-08-27T04:52:45.381Z,92.62
2022-08-27T04:53:45.352Z,92.42
2022-08-27T04:54:45.408Z,92.42
2022-08-27T04:55:45.475Z,92.42
2022-08-27T04:56:45.560Z,92.82
2022-08-27T04:57:45.629Z,92.62
2022-08-27T04:58:45.642Z,92.72
2022-08-27T04:59:45.676Z,92.62
2022-08-27T05:00:45.683Z,92.62
2022-08-27T05:01:45.777Z,92.58
2022-08-27T05:02:45.727Z,92.62
2022-08-27T05:03:45.757Z,92.82
2022-08-27T05:04:45.786Z,93.08
2022-08-27T05:05:45.775Z,92.52
2022-08-27T05:06:45.794Z,92.47
2022-08-27T05:07:45.775Z,92.52
2022-08-27T05:08:45.786Z,92.42
2022-08-27T05:09:45.805Z,92.52
2022-08-27T05:10:45.802Z,92.52
2022-08-27T05:11:45.817Z,92.32
2022-08-27T05:12:45.808Z,92.42
2022-08-27T05:13:45.825Z,92.52
2022-08-27T05:14:45.778Z,92.78
2022-08-27T05:15:45.892Z,92.52
2022-08-27T05:16:45.899Z,92.58
2022-08-27T05:17:45.956Z,92.78
2022-08-27T05:18:48.114Z,92.98
2022-08-27T05:19:45.971Z,92.27
2022-08-27T05:20:45.998Z,92.07
2022-08-27T05:21:45.999Z,91.97
2022-08-27T05:22:46.030Z,92.18
2022-08-27T05:23:46.097Z,92.27
2022-08-27T05:24:50.022Z,92.18
2022-08-27T05:25:46.214Z,92.07
2022-08-27T05:26:46.190Z,92.07
2022-08-27T05:27:46.232Z,92.38
2022-08-27T05:28:46.264Z,92.18
2022-08-27T05:29:46.253Z,92.07
2022-08-27T05:30:52.402Z,92.07
2022-08-27T05:31:46.244Z,91.77
2022-08-27T05:32:46.381Z,91.97
2022-08-27T05:33:46.346Z,91.67
2022-08-27T05:34:46.317Z,91.87
2022-08-27T05:35:46.405Z,91.97
2022-08-27T05:36:48.778Z,91.57
2022-08-27T05:37:46.377Z,91.57
2022-08-27T05:38:46.414Z,91.37
2022-08-27T05:39:46.457Z,91.57
2022-08-27T05:40:46.529Z,91.67
2022-08-27T05:41:46.629Z,91.57
2022-08-27T05:42:46.619Z,91.47
2022-08-27T05:43:50.263Z,91.27
2022-08-27T05:44:46.724Z,91.47
2022-08-27T05:45:46.838Z,91.47
2022-08-27T05:46:46.802Z,91.47
2022-08-27T05:47:46.770Z,91.37
2022-08-27T05:48:46.810Z,91.47
2022-08-27T05:49:46.858Z,91.47
2022-08-27T05:50:46.878Z,91.57
2022-08-27T05:51:46.976Z,91.67
2022-08-27T05:52:47.052Z,91.57
2022-08-27T05:53:47.105Z,91.47
2022-08-27T05:54:47.047Z,91.53
2022-08-27T05:55:47.111Z,91.37
2022-08-27T05:56:47.945Z,91.63
2022-08-27T05:57:47.119Z,91.22
2022-08-27T05:58:47.131Z,90.72
2022-08-27T05:59:47.138Z,90.72
2022-08-27T06:00:47.104Z,91.13
2022-08-27T06:01:47.186Z,91.22
2022-08-27T06:02:47.216Z,90.72
2022-08-27T06:03:47.280Z,90.62
2022-08-27T06:04:47.373Z,91.22
2022-08-27T06:05:47.379Z,91.02
2022-08-27T06:06:47.287Z,90.82
2022-08-27T06:07:47.359Z,90.72
2022-08-27T06:08:47.375Z,91.02
2022-08-27T06:09:47.392Z,91.02
2022-08-27T06:10:47.477Z,90.01
2022-08-27T06:11:47.428Z,90.11
2022-08-27T06:12:47.468Z,90.22
2022-08-27T06:13:47.567Z,90.22
2022-08-27T06:14:47.579Z,90.32
2022-08-27T06:15:47.695Z,90.62
2022-08-27T06:16:47.656Z,90.62
2022-08-27T06:17:47.703Z,90.32
2022-08-27T06:18:47.712Z,90.62
2022-08-27T06:19:47.710Z,90.52
2022-08-27T06:20:47.762Z,90.52
2022-08-27T06:22:00.270Z,89.71
2022-08-27T06:22:47.821Z,89.71
2022-08-27T06:23:47.903Z,90.01
2022-08-27T06:24:47.934Z,90.32
2022-08-27T06:25:47.925Z,89.91
2022-08-27T06:26:47.912Z,90.11
2022-08-27T06:27:47.965Z,89.71
2022-08-27T06:28:48.063Z,89.61
2022-08-27T06:29:48.105Z,89.51
2022-08-27T06:30:48.212Z,89.81
2022-08-27T06:31:48.249Z,89.61
2022-08-27T06:32:48.213Z,89.61
2022-08-27T06:33:48.296Z,89.31
2022-08-27T06:34:48.336Z,89.31
2022-08-27T06:35:48.355Z,88.90
2022-08-27T06:36:48.387Z,88.70
2022-08-27T06:37:48.364Z,89.21
2022-08-27T06:38:49.486Z,88.70
2022-08-27T06:39:48.357Z,89.01
2022-08-27T06:40:48.398Z,88.70
2022-08-27T06:41:48.480Z,88.81
2022-08-27T06:42:48.487Z,88.60
2022-08-27T06:43:48.541Z,89.01
2022-08-27T06:44:48.522Z,88.70
2022-08-27T06:45:48.676Z,88.60
2022-08-27T06:46:48.631Z,88.50
2022-08-27T06:47:48.678Z,88.50
2022-08-27T06:48:48.652Z,88.40
2022-08-27T06:49:48.725Z,88.20
2022-08-27T06:50:48.743Z,88.50
2022-08-27T06:51:48.781Z,88.10
2022-08-27T06:52:48.839Z,88.30
2022-08-27T06:53:48.876Z,87.80
2022-08-27T06:54:48.833Z,88.00
2022-08-27T06:55:48.904Z,87.70
2022-08-27T06:56:48.984Z,87.60
2022-08-27T06:57:49.034Z,87.80
2022-08-27T06:58:49.065Z,87.70
2022-08-27T06:59:49.085Z,87.60
2022-08-27T07:00:49.232Z,87.85
2022-08-27T07:01:49.152Z,87.85
2022-08-27T07:02:49.153Z,87.85
2022-08-27T07:03:49.362Z,87.96
2022-08-27T07:04:49.191Z,87.96
2022-08-27T07:05:49.264Z,87.85
2022-08-27T07:06:49.227Z,87.65
2022-08-27T07:07:49.247Z,87.35
2022-08-27T07:08:53.468Z,87.25
2022-08-27T07:09:49.229Z,87.45
2022-08-27T07:10:49.198Z,87.65
2022-08-27T07:11:49.205Z,87.55
2022-08-27T07:12:49.237Z,87.15
2022-08-27T07:13:49.288Z,87.55
2022-08-27T07:14:49.270Z,87.25
2022-08-27T07:15:49.385Z,86.95
2022-08-27T07:16:49.362Z,86.91
2022-08-27T07:17:49.389Z,86.51
2022-08-27T07:18:49.421Z,86.81
2022-08-27T07:19:49.471Z,86.66
2022-08-27T07:20:49.528Z,85.86
2022-08-27T07:21:49.484Z,85.86
2022-08-27T07:22:49.604Z,85.76
2022-08-27T07:23:49.621Z,86.22
2022-08-27T07:24:49.634Z,85.22
2022-08-27T07:25:49.640Z,84.97
2022-08-27T07:26:49.644Z,84.27
2022-08-27T07:27:49.653Z,84.27
2022-08-27T07:28:50.270Z,84.07
2022-08-27T07:29:49.684Z,84.63
2022-08-27T07:30:49.781Z,83.63
2022-08-27T07:31:49.776Z,83.43
2022-08-27T07:32:49.855Z,83.83
2022-08-27T07:33:51.367Z,83.33
2022-08-27T07:34:49.897Z,83.03
2022-08-27T07:35:49.921Z,83.12
2022-08-27T07:36:49.939Z,82.92
2022-08-27T07:37:49.948Z,83.23
2022-08-27T07:39:00.854Z,82.72
2022-08-27T07:39:49.979Z,82.42
2022-08-27T07:40:49.950Z,83.63
2022-08-27T07:41:49.982Z,82.92
2022-08-27T07:42:49.959Z,82.92
2022-08-27T07:43:50.019Z,82.62
2022-08-27T07:44:50.063Z,82.62
2022-08-27T07:45:50.139Z,82.92
2022-08-27T07:46:50.104Z,82.82
2022-08-27T07:47:50.253Z,82.86
2022-08-27T07:48:50.193Z,83.17
2022-08-27T07:49:50.234Z,82.97
2022-08-27T07:50:50.261Z,83.97
2022-08-27T07:51:50.322Z,83.33
2022-08-27T07:52:50.380Z,82.42
2022-08-27T07:53:50.630Z,82.82
2022-08-27T07:54:50.695Z,83.12
2022-08-27T07:55:50.504Z,82.12
2022-08-27T07:56:55.078Z,82.62
2022-08-27T07:57:50.564Z,83.03
2022-08-27T07:58:50.586Z,82.12
2022-08-27T07:59:50.676Z,82.32
2022-08-27T08:00:50.697Z,82.36
2022-08-27T08:01:50.793Z,83.06
2022-08-27T08:02:50.729Z,83.87
2022-08-27T08:03:50.756Z,83.93
2022-08-27T08:04:50.840Z,81.92
2022-08-27T08:05:50.823Z,81.92
2022-08-27T08:06:50.820Z,83.12
2022-08-27T08:07:50.842Z,81.92
2022-08-27T08:08:50.862Z,82.86
2022-08-27T08:09:50.913Z,82.86
2022-08-27T08:10:50.921Z,82.42
2022-08-27T08:11:50.910Z,82.56
2022-08-27T08:12:50.984Z,82.66
2022-08-27T08:13:50.972Z,82.86
2022-08-27T08:14:50.968Z,83.97
2022-08-27T08:15:50.962Z,83.97
2022-08-27T08:16:51.213Z,83.37
2022-08-27T08:17:51.002Z,83.97
2022-08-27T08:18:51.054Z,83.67
2022-08-27T08:20:15.466Z,83.87
2022-08-27T08:20:58.152Z,83.67
2022-08-27T08:21:55.128Z,83.81
2022-08-27T08:22:51.155Z,83.91
2022-08-27T08:23:51.158Z,83.91
2022-08-27T08:24:54.485Z,84.21
2022-08-27T08:25:51.205Z,84.07
2022-08-27T08:26:51.237Z,83.37
2022-08-27T08:27:51.262Z,83.26
2022-08-27T08:28:51.305Z,83.37
2022-08-27T08:29:51.327Z,83.57
2022-08-27T08:30:51.345Z,84.47
2022-08-27T08:31:51.396Z,83.67
2022-08-27T08:32:51.619Z,83.97
2022-08-27T08:33:51.390Z,83.87
2022-08-27T08:34:51.450Z,83.37
2022-08-27T08:35:51.743Z,83.87
2022-08-27T08:36:55.132Z,83.26
2022-08-27T08:37:51.750Z,83.26
2022-08-27T08:38:51.581Z,83.06
2022-08-27T08:39:51.617Z,83.57
2022-08-27T08:40:51.706Z,83.76
2022-08-27T08:41:51.633Z,83.97
2022-08-27T08:42:51.668Z,83.57
2022-08-27T08:45:17.584Z,83.63
2022-08-27T08:46:17.634Z,82.97
2022-08-27T08:47:17.645Z,84.31
2022-08-27T08:51:09.621Z,84.51
2022-08-27T08:52:09.663Z,84.31
2022-08-27T08:53:09.702Z,84.81
2022-08-27T08:54:09.713Z,84.91
2022-08-27T08:55:09.755Z,84.61
2022-08-27T08:56:09.730Z,84.61
2022-08-27T08:57:09.774Z,84.51
2022-08-27T08:58:10.033Z,84.71
2022-08-27T08:59:09.889Z,84.61
2022-08-27T09:00:09.943Z,84.81
2022-08-27T09:01:09.915Z,84.71
2022-08-27T09:02:13.230Z,84.71
2022-08-27T09:03:09.974Z,84.41
2022-08-27T09:04:10.057Z,84.81
2022-08-27T09:05:11.192Z,85.11
2022-08-27T09:06:10.026Z,84.57
2022-08-27T09:07:10.065Z,84.61
2022-08-27T09:08:32.036Z,85.42
2022-08-27T09:09:10.205Z,86.22
2022-08-27T09:10:10.237Z,86.46
2022-08-27T09:11:10.266Z,86.87
2022-08-27T09:12:11.237Z,87.27
2022-08-27T09:13:10.295Z,87.27
2022-08-27T09:14:13.314Z,87.71
2022-08-27T09:15:12.604Z,88.02
2022-08-27T09:16:10.449Z,88.42
2022-08-27T09:17:11.255Z,89.17
2022-08-27T09:18:14.029Z,90.48
2022-08-27T09:19:13.064Z,90.78
2022-08-27T09:20:13.022Z,90.92
2022-08-27T09:21:10.535Z,91.22
2022-08-27T09:22:10.578Z,92.23
2022-08-27T09:23:10.541Z,92.13
2022-08-27T09:24:11.316Z,92.63
2022-08-27T09:25:10.655Z,92.63
2022-08-27T09:26:10.653Z,92.33
2022-08-27T09:27:11.616Z,93.04
2022-08-27T09:28:11.128Z,92.43
2022-08-27T09:29:10.816Z,92.43
2022-08-27T09:30:11.104Z,92.27
2022-08-27T09:31:10.887Z,92.47
2022-08-27T09:32:10.856Z,92.88
2022-08-27T09:33:10.966Z,93.29
2022-08-27T09:34:10.984Z,93.18
2022-08-27T09:35:12.084Z,93.59
2022-08-27T09:36:11.074Z,93.59
2022-08-27T09:37:11.169Z,93.73
2022-08-27T09:38:12.077Z,94.04
2022-08-27T09:39:11.193Z,94.44
2022-08-27T09:40:13.591Z,94.24
2022-08-27T09:41:12.071Z,94.24
2022-08-27T09:42:11.241Z,94.34
2022-08-27T09:43:11.329Z,94.54
2022-08-27T09:44:11.373Z,94.54
2022-08-27T09:45:11.925Z,94.44
2022-08-27T09:46:11.416Z,94.44
2022-08-27T09:47:11.508Z,94.84
2022-08-27T09:48:11.726Z,94.84
2022-08-27T09:49:12.592Z,95.14
2022-08-27T09:50:12.539Z,95.25
2022-08-27T09:51:11.713Z,94.94
2022-08-27T09:52:18.963Z,95.14
2022-08-27T09:53:11.595Z,94.74
2022-08-27T09:54:12.609Z,95.04
2022-08-27T09:55:12.707Z,95.04
2022-08-27T09:56:11.614Z,95.25
2022-08-27T09:57:11.774Z,95.25
2022-08-27T09:58:12.009Z,95.35
2022-08-27T09:59:11.747Z,94.94
2022-08-27T10:00:11.718Z,94.64
2022-08-27T10:01:11.800Z,94.84
2022-08-27T10:02:11.756Z,94.94
2022-08-27T10:03:12.494Z,94.74
2022-08-27T10:04:11.889Z,94.48
2022-08-27T10:05:11.880Z,94.89
2022-08-27T10:06:11.848Z,95.19
2022-08-27T10:07:11.891Z,95.39
2022-08-27T10:08:12.080Z,94.89
2022-08-27T10:09:11.965Z,94.99
2022-08-27T10:10:12.039Z,95.29
2022-08-27T10:11:13.930Z,95.19
2022-08-27T10:12:12.112Z,95.14
2022-08-27T10:13:12.980Z,95.23
2022-08-27T10:14:12.236Z,95.74
2022-08-27T10:15:12.273Z,95.54
2022-08-27T10:16:12.418Z,95.74
2022-08-27T10:17:12.681Z,95.74
2022-08-27T10:18:12.668Z,95.74
2022-08-27T10:19:12.464Z,95.74
2022-08-27T10:20:12.443Z,95.64
2022-08-27T10:21:12.511Z,95.94
2022-08-27T10:22:12.561Z,96.04
2022-08-27T10:23:12.580Z,95.74
2022-08-27T10:24:12.579Z,96.04
2022-08-27T10:25:12.623Z,95.90
2022-08-27T10:26:12.666Z,95.90
2022-08-27T10:27:12.646Z,95.59
2022-08-27T10:28:13.559Z,95.14
2022-08-27T10:29:12.774Z,95.39
2022-08-27T10:30:12.806Z,95.39
2022-08-27T10:31:12.788Z,95.39
2022-08-27T10:32:12.868Z,95.49
2022-08-27T10:33:12.894Z,95.39
2022-08-27T10:34:12.924Z,95.79
2022-08-27T10:35:12.987Z,95.70
2022-08-27T10:36:13.768Z,96.00
2022-08-27T10:37:13.092Z,96.00
2022-08-27T10:38:13.798Z,96.10
2022-08-27T10:39:13.817Z,96.00
2022-08-27T10:41:39.345Z,96.60
2022-08-27T10:42:39.371Z,96.50
2022-08-27T10:43:39.038Z,96.40
2022-08-27T10:46:05.186Z,95.95
2022-08-27T10:47:05.222Z,95.75
2022-08-27T10:48:20.258Z,95.45
2022-08-27T10:49:05.169Z,95.35
2022-08-27T10:50:05.195Z,95.10
2022-08-27T10:51:05.372Z,94.80
2022-08-27T10:52:08.229Z,95.14
2022-08-27T10:53:07.119Z,95.35
2022-08-27T10:54:05.319Z,95.35
2022-08-27T10:55:06.889Z,95.10
2022-08-27T10:56:05.452Z,95.50
2022-08-27T10:57:28.494Z,95.50
2022-08-27T10:58:05.512Z,95.26
2022-08-27T10:59:05.606Z,94.45
2022-08-27T11:00:05.598Z,94.15
2022-08-27T11:01:05.669Z,94.25
2022-08-27T11:02:05.669Z,94.75
2022-08-27T11:03:05.924Z,93.85
2022-08-27T11:04:05.694Z,94.29
2022-08-27T11:05:05.752Z,94.45
2022-08-27T11:06:05.729Z,94.55
2022-08-27T11:07:05.734Z,93.95
2022-08-27T11:08:07.787Z,93.85
2022-08-27T11:09:10.403Z,94.05
2022-08-27T11:10:05.794Z,93.14
2022-08-27T11:11:51.460Z,93.04
2022-08-27T11:12:14.635Z,92.94
2022-08-27T11:13:06.122Z,92.49
2022-08-27T11:14:05.905Z,92.79
2022-08-27T11:15:07.962Z,92.69
2022-08-27T11:16:05.929Z,92.49
2022-08-27T11:17:05.950Z,91.64
2022-08-27T11:18:05.959Z,91.18
2022-08-27T11:19:05.973Z,91.49
2022-08-27T11:20:06.983Z,91.64
2022-08-27T11:21:06.862Z,91.24
2022-08-27T11:22:06.069Z,90.49
2022-08-27T11:23:06.352Z,89.48
2022-08-27T11:24:06.165Z,89.79
2022-08-27T11:25:09.071Z,89.83
2022-08-27T11:26:07.167Z,90.09
2022-08-27T11:27:06.260Z,90.09
2022-08-27T11:28:07.150Z,89.28
2022-08-27T11:29:06.294Z,89.59
2022-08-27T11:30:06.294Z,89.69
2022-08-27T11:31:07.364Z,89.48
2022-08-27T11:32:06.610Z,89.69
2022-08-27T11:33:06.589Z,89.89
2022-08-27T11:34:06.544Z,89.59
2022-08-27T11:35:06.698Z,89.39
2022-08-27T11:36:06.644Z,89.89
2022-08-27T11:37:06.600Z,89.59
2022-08-27T11:38:07.658Z,89.43
2022-08-27T11:39:06.680Z,89.59
2022-08-27T11:40:06.747Z,89.39
2022-08-27T11:41:06.709Z,89.28
2022-08-27T11:42:06.801Z,89.08
2022-08-27T11:43:06.812Z,89.18
2022-08-27T11:44:06.770Z,89.18
2022-08-27T11:45:06.920Z,88.84
2022-08-27T11:46:06.948Z,88.68
2022-08-27T11:47:07.713Z,88.38
2022-08-27T11:48:06.841Z,88.68
2022-08-27T11:49:07.083Z,88.18
2022-08-27T11:50:06.883Z,88.38
2022-08-27T11:51:06.841Z,88.23
2022-08-27T11:52:06.938Z,88.13
2022-08-27T11:53:06.945Z,88.07
2022-08-27T11:54:07.660Z,87.77
2022-08-27T11:55:07.063Z,88.07
2022-08-27T11:56:07.065Z,88.28
2022-08-27T11:57:07.233Z,87.93
2022-08-27T11:58:07.138Z,87.43
2022-08-27T11:59:07.889Z,87.43
2022-08-27T12:00:07.089Z,87.73
2022-08-27T12:01:07.185Z,87.59
2022-08-27T12:02:08.341Z,86.79
2022-08-27T12:03:07.270Z,86.08
2022-08-27T12:04:08.453Z,86.93
2022-08-27T12:05:07.167Z,87.02
2022-08-27T12:06:07.232Z,87.23
2022-08-27T12:07:07.251Z,86.68
2022-08-27T12:08:07.398Z,86.48
2022-08-27T12:09:07.296Z,85.84
2022-08-27T12:10:07.522Z,85.44
2022-08-27T12:11:08.979Z,85.10
2022-08-27T12:12:07.466Z,84.39
2022-08-27T12:13:07.449Z,84.09
2022-08-27T12:14:07.652Z,84.19
2022-08-27T12:15:07.546Z,84.13
2022-08-27T12:16:07.591Z,83.69
2022-08-27T12:17:07.523Z,84.19
2022-08-27T12:18:12.669Z,83.29
2022-08-27T12:19:07.819Z,83.29
2022-08-27T12:20:07.619Z,83.69
2022-08-27T12:21:07.674Z,83.89
2022-08-27T12:22:07.813Z,83.49
2022-08-27T12:23:07.715Z,82.95
2022-08-27T12:24:07.902Z,82.34
2022-08-27T12:25:07.796Z,81.54
2022-08-27T12:26:08.114Z,81.90
2022-08-27T12:27:08.646Z,81.50
2022-08-27T12:28:07.941Z,81.50
2022-08-27T12:29:08.731Z,82.10
2022-08-27T12:30:07.935Z,82.51
2022-08-27T12:31:07.920Z,81.56
2022-08-27T12:32:08.617Z,80.96
2022-08-27T12:33:08.859Z,80.26
2022-08-27T12:34:08.729Z,79.25
2022-08-27T12:35:08.041Z,79.12
2022-08-27T12:36:08.075Z,78.52
2022-08-27T12:37:08.843Z,77.87
2022-08-27T12:38:08.246Z,77.37
2022-08-27T12:39:09.171Z,77.98
2022-08-27T12:40:08.387Z,78.04
2022-08-27T12:41:09.002Z,77.00
2022-08-27T12:42:08.394Z,75.56
2022-08-27T12:43:08.775Z,75.26
2022-08-27T12:44:08.403Z,75.13
2022-08-27T12:45:08.398Z,74.66
2022-08-27T12:46:08.413Z,75.16
2022-08-27T12:47:08.455Z,74.63
2022-08-27T12:48:08.525Z,75.19
2022-08-27T12:49:36.876Z,73.99
2022-08-27T12:50:08.497Z,72.96
2022-08-27T12:51:08.567Z,72.96
2022-08-27T12:52:08.565Z,72.96
2022-08-27T12:53:08.589Z,72.92
2022-08-27T12:54:08.648Z,71.62
2022-08-27T12:55:09.365Z,71.12
2022-08-27T12:56:08.671Z,71.16
2022-08-27T12:57:08.667Z,71.69
2022-08-27T12:58:11.168Z,73.09
2022-08-27T12:59:08.670Z,72.66
2022-08-27T13:00:08.724Z,72.09